Fenwick, West Virginia
Current Conditions -  °F | °C
As of 4:15 PM on Friday 24 Oct 2014 (Local Time) from KLWB Reporting Station
Clear Clear  
Wind Chill: 62°   Ceiling: Unl
Heat Index: 62°   Visibility: 10mi
Dew Point: 35°   Wind: 7mph
Humidity: 37%   Direction: 270°W
Pressure: 30.02"   Gusts: NA
Location:  38.23°N, 80.58°W
Report Text: KLWB 242015Z AUTO 27006KT 10SM CLR 17/02 A3002 RMK AO2 T01680018
Loading
Personal Weather Stations






























Interactive Weather Map New forecast layout! Learn more

10-Day Weather Forecast

Advertisements
Track Severe Weather on mobile